Latest Weather Observations for Busselton Jetty

IDW60801

Issued at 11:04 am WST Friday 30 September 2016 (issued every 30 minutes, with the page automatically refreshed every 10 minutes)

About weather observations | Map of weather stations | Latest weather observations for WA | Other Formats
Station Details ID: 009937 Name: BUSSELTON JETTY Lat: -33.63 Lon: 115.34 Height: 3.0 m
Data from the previous 72 hours. | See also: Recent months at Busselton Jetty
Date/Time
WST
Temp
°C
App
Temp
°C
Dew
Point
°C
Rel
Hum
%
Delta-T
°C
Wind Press
QNH
hPa
Press
MSL
hPa
Rain since
9am
mm
Dir  Spd
km/h
Gust
km/h
Spd
kts
Gust
kts
30/11:00am - - - - - WNW 48 57 26 31 - - -
30/10:30am - - - - - WNW 44 56 24 30 - - -
30/10:00am - - - - - WNW 41 52 22 28 - - -
30/09:30am - - - - - W 41 50 22 27 - - -
30/09:00am - - - - - WNW 39 46 21 25 - - -
30/08:30am - - - - - W 46 56 25 30 - - -
30/08:00am - - - - - WNW 46 54 25 29 - - -
30/07:30am - - - - - WNW 50 67 27 36 - - -
30/07:27am - - - - - WNW 48 67 26 36 - - -
30/07:00am - - - - - NW 46 54 25 29 - - -
30/06:30am - - - - - NW 43 52 23 28 - - -
30/06:00am - - - - - NW 41 52 22 28 - - -
30/05:30am - - - - - NW 39 46 21 25 - - -
30/05:00am - - - - - NW 35 43 19 23 - - -
30/04:30am - - - - - NW 39 43 21 23 - - -
30/04:00am - - - - - NW 37 43 20 23 - - -
30/03:30am - - - - - NW 33 39 18 21 - - -
30/03:00am - - - - - NW 35 41 19 22 - - -
30/02:30am - - - - - NW 33 43 18 23 - - -
30/02:00am - - - - - WNW 33 39 18 21 - - -
30/01:30am - - - - - NW 30 35 16 19 - - -
30/01:00am - - - - - NW 30 35 16 19 - - -
30/12:30am - - - - - WNW 30 35 16 19 - - -
30/12:00am - - - - - WNW 26 32 14 17 - - -
 
Date/Time
WST
Temp
°C
App
Temp
°C
Dew
Point
°C
Rel
Hum
%
Delta-T
°C
Wind Press
QNH
hPa
Press
MSL
hPa
Rain since
9am
mm
Dir  Spd
km/h
Gust
km/h
Spd
kts
Gust
kts
29/11:30pm - - - - - W 28 32 15 17 - - -
29/11:00pm - - - - - W 32 35 17 19 - - -
29/10:30pm - - - - - W 30 35 16 19 - - -
29/10:00pm - - - - - WNW 28 33 15 18 - - -
29/09:30pm - - - - - WNW 17 24 9 13 - - -
29/09:00pm - - - - - W 17 19 9 10 - - -
29/08:30pm - - - - - WSW 15 17 8 9 - - -
29/08:00pm - - - - - WNW 17 24 9 13 - - -
29/07:30pm - - - - - NNW 30 39 16 21 - - -
29/07:00pm - - - - - NNW 26 32 14 17 - - -
29/06:30pm - - - - - N 26 32 14 17 - - -
29/06:00pm - - - - - N 26 30 14 16 - - -
29/05:30pm - - - - - N 28 33 15 18 - - -
29/05:00pm - - - - - N 28 30 15 16 - - -
29/04:30pm - - - - - N 26 30 14 16 - - -
29/04:00pm - - - - - N 24 32 13 17 - - -
29/03:30pm - - - - - N 28 30 15 16 - - -
29/03:00pm - - - - - N 26 32 14 17 - - -
29/02:30pm - - - - - N 26 30 14 16 - - -
29/02:00pm - - - - - N 24 30 13 16 - - -
29/01:30pm - - - - - N 20 28 11 15 - - -
29/01:00pm - - - - - NNE 17 20 9 11 - - -
29/12:30pm - - - - - N 19 24 10 13 - - -
29/12:00pm - - - - - N 17 19 9 10 - - -
29/11:30am - - - - - N 17 19 9 10 - - -
29/11:00am - - - - - NNE 17 20 9 11 - - -
29/10:30am - - - - - NNE 17 19 9 10 - - -
29/10:00am - - - - - NNE 13 17 7 9 - - -
29/09:30am - - - - - NNE 11 17 6 9 - - -
29/09:00am - - - - - NE 9 13 5 7 - - -
29/08:30am - - - - - E 13 17 7 9 - - -
29/08:00am - - - - - E 11 13 6 7 - - -
29/07:30am - - - - - ESE 13 17 7 9 - - -
29/07:00am - - - - - ESE 15 17 8 9 - - -
29/06:30am - - - - - SE 13 15 7 8 - - -
29/06:00am - - - - - SE 11 13 6 7 - - -
29/05:30am - - - - - SE 9 11 5 6 - - -
29/05:00am - - - - - SE 9 11 5 6 - - -
29/04:30am - - - - - ESE 11 13 6 7 - - -
29/04:00am - - - - - ESE 15 19 8 10 - - -
29/03:30am - - - - - ESE 13 19 7 10 - - -
29/03:00am - - - - - ESE 13 17 7 9 - - -
29/02:30am - - - - - ESE 11 17 6 9 - - -
29/02:00am - - - - - ESE 13 17 7 9 - - -
29/01:30am - - - - - ESE 15 17 8 9 - - -
29/01:00am - - - - - ESE 19 24 10 13 - - -
29/12:30am - - - - - SE 15 17 8 9 - - -
29/12:00am - - - - - SE 15 19 8 10 - - -
 
Date/Time
WST
Temp
°C
App
Temp
°C
Dew
Point
°C
Rel
Hum
%
Delta-T
°C
Wind Press
QNH
hPa
Press
MSL
hPa
Rain since
9am
mm
Dir  Spd
km/h
Gust
km/h
Spd
kts
Gust
kts
28/11:30pm - - - - - SSE 15 19 8 10 - - -
28/11:00pm - - - - - SSE 15 19 8 10 - - -
28/10:30pm - - - - - SSE 19 22 10 12 - - -
28/10:00pm - - - - - SSE 19 22 10 12 - - -
28/09:30pm - - - - - SSE 19 24 10 13 - - -
28/09:00pm - - - - - SSE 20 26 11 14 - - -
28/08:30pm - - - - - SSE 20 26 11 14 - - -
28/08:00pm - - - - - S 20 26 11 14 - - -
28/07:30pm - - - - - S 20 26 11 14 - - -
28/07:00pm - - - - - S 20 26 11 14 - - -
28/06:30pm - - - - - S 20 26 11 14 - - -
28/06:00pm - - - - - SSE 22 30 12 16 - - -
28/05:30pm - - - - - SSE 20 28 11 15 - - -
28/05:00pm - - - - - SSE 20 28 11 15 - - -
28/04:30pm - - - - - SSE 24 32 13 17 - - -
28/04:00pm - - - - - SSE 20 32 11 17 - - -
28/03:30pm - - - - - S 28 37 15 20 - - -
28/03:00pm - - - - - S 28 37 15 20 - - -
28/02:30pm - - - - - SSW 24 35 13 19 - - -
28/02:00pm - - - - - S 20 32 11 17 - - -
28/01:30pm - - - - - S 26 37 14 20 - - -
28/01:00pm - - - - - S 24 35 13 19 - - -
28/12:30pm - - - - - S 19 26 10 14 - - -
28/12:00pm - - - - - SSW 28 39 15 21 - - -
28/11:30am - - - - - S 26 32 14 17 - - -
28/11:00am - - - - - SSW 28 37 15 20 - - -
28/10:30am - - - - - SSW 24 33 13 18 - - -
28/10:00am - - - - - SSW 26 35 14 19 - - -
28/09:30am - - - - - S 30 39 16 21 - - -
28/09:00am - - - - - SSW 32 41 17 22 - - -
28/08:30am - - - - - SSW 20 28 11 15 - - -
28/08:00am - - - - - SSW 17 19 9 10 - - -
28/07:30am - - - - - SSW 19 24 10 13 - - -
28/07:00am - - - - - SSW 19 22 10 12 - - -
28/06:30am - - - - - SSW 20 26 11 14 - - -
28/06:00am - - - - - SW 17 20 9 11 - - -
28/05:30am - - - - - SW 22 28 12 15 - - -
28/05:00am - - - - - SSW 22 30 12 16 - - -
28/04:30am - - - - - SSW 15 17 8 9 - - -
28/04:00am - - - - - SSW 19 22 10 12 - - -
28/03:30am - - - - - SSW 24 28 13 15 - - -
28/03:00am - - - - - SSW 30 37 16 20 - - -
28/02:30am - - - - - SSW 24 30 13 16 - - -
28/02:01am - - - - - SSW 32 50 17 27 - - -
28/02:00am - - - - - SSW 30 37 16 20 - - -
28/01:30am - - - - - SW 22 26 12 14 - - -
28/01:00am - - - - - SW 20 26 11 14 - - -
28/12:30am - - - - - SSW 26 30 14 16 - - -
28/12:00am - - - - - SW 28 33 15 18 - - -
 
Date/Time
WST
Temp
°C
App
Temp
°C
Dew
Point
°C
Rel
Hum
%
Delta-T
°C
Wind Press
QNH
hPa
Press
MSL
hPa
Rain since
9am
mm
Dir  Spd
km/h
Gust
km/h
Spd
kts
Gust
kts
27/11:30pm - - - - - SW 32 39 17 21 - - -
27/11:00pm - - - - - SSW 33 52 18 28 - - -
27/10:59pm - - - - - SSW 33 52 18 28 - - -
27/10:30pm - - - - - SSW 28 35 15 19 - - -
27/10:04pm - - - - - SSW 44 63 24 34 - - -
27/10:00pm - - - - - SSW 43 63 23 34 - - -
27/09:54pm - - - - - SSW 32 56 17 30 - - -
27/09:30pm - - - - - SW 32 44 17 24 - - -
27/09:00pm - - - - - SSW 30 37 16 20 - - -
27/08:30pm - - - - - SSW 33 43 18 23 - - -
27/08:02pm - - - - - SSW 33 52 18 28 - - -
27/08:00pm - - - - - SW 32 43 17 23 - - -
27/07:30pm - - - - - SSW 30 35 16 19 - - -
27/07:00pm - - - - - SW 35 48 19 26 - - -
27/06:57pm - - - - - SW 37 48 20 26 - - -
27/06:35pm - - - - - WSW 39 63 21 34 - - -
27/06:30pm - - - - - WSW 39 48 21 26 - - -
27/06:06pm - - - - - SW 43 61 23 33 - - -
27/06:00pm - - - - - SW 52 65 28 35 - - -
27/05:50pm - - - - - SW 35 63 19 34 - - -
27/05:30pm - - - - - SSW 44 56 24 30 - - -
27/05:00pm - - - - - SW 52 76 28 41 - - -
27/04:51pm - - - - - SW 48 74 26 40 - - -
27/04:30pm - - - - - SW 37 46 20 25 - - -
27/04:00pm - - - - - SW 46 63 25 34 - - -
27/03:56pm - - - - - SW 41 61 22 33 - - -
27/03:30pm - - - - - SW 44 59 24 32 - - -
27/03:13pm - - - - - SW 48 67 26 36 - - -
27/03:00pm - - - - - SW 43 54 23 29 - - -
27/02:31pm - - - - - SW 41 59 22 32 - - -
27/02:30pm - - - - - SW 41 56 22 30 - - -
27/02:00pm - - - - - SW 46 59 25 32 - - -
27/01:44pm - - - - - SW 43 59 23 32 - - -
27/01:32pm - - - - - WSW 30 52 16 28 - - -
27/01:30pm - - - - - W 24 52 13 28 - - -
27/01:00pm - - - - - WSW 19 24 10 13 - - -
27/12:30pm - - - - - SW 37 52 20 28 - - -
27/12:00pm - - - - - SW 44 59 24 32 - - -
27/11:57am - - - - - SW 46 59 25 32 - - -
27/11:47am - - - - - SW 61 80 33 43 - - -
27/11:42am - - - - - W 54 78 29 42 - - -
27/11:35am - - - - - W 50 69 27 37 - - -
27/11:30am - - - - - W 56 69 30 37 - - -
27/11:22am - - - - - W 69 87 37 47 - - -
27/11:17am - - - - - W 65 87 35 47 - - -
27/11:06am - - - - - W 56 74 30 40 - - -

Other Formats:

Comma delimited format used in spreadsheet applications
http://www.bom.gov.au/fwo/IDW60801/IDW60801.95602.axf

JavaScript Object Notation format (JSON) in row-major order
http://www.bom.gov.au/fwo/IDW60801/IDW60801.95602.json